x

South Hecate Strait (46185) Wave Buoy

10:00pm - Mon 20th Oct 2014 All times are PDT. -7 hours from GMT.

  • Sig Wave height 6.6ft
  • Peak Period 10s
  • Wind
    18mph, 20mph gusts
  • Sea Temp 56°f
  • Air Temp 56°f
  • Sea Pressure 999.5mb
  • South Hecate Strait
  • South Hecate Strait

More Historic Weather Station data

Upgrade to MSW Pro to gain access to the past 30 days of data for over 8000 Wavebouys and Weather Stations around the globe.

Join Pro

Comparision Forecast

View Surf forecast
   
Mon 10/20 10:00pm 6.5ft 10s 18 20 mph 999.5mb 56f 56f
9:00pm 6ft 10s 16 18 mph 999.8mb 56f 56f
8:00pm 7ft 10s 13 16 mph 1000.3mb 56f 55f
7:00pm 6.5ft 10s 11 16 mph 1000.7mb 56f 55f
6:00pm 7ft 10s 11 13 mph 1000.8mb 55f 55f
5:00pm 6.5ft 10s 13 18 mph 1000.8mb 55f 55f
4:00pm 7ft 10s 13 18 mph 1000.3mb 55f 55f
3:00pm 6ft 10s 13 16 mph 999.1mb 55f 54f
2:00pm 7ft 10s 9 13 mph 996.6mb 55f 52f
1:00pm 7ft 11s 9 13 mph 996.7mb 55f 52f
12:00pm 6.5ft 10s 7 11 mph 997.8mb 55f 51f
11:00am 7ft 10s 13 16 mph 998mb 55f 52f
10:00am 7ft 10s 16 27 mph 997.4mb 55f 54f
9:00am 7ft 10s 9 11 mph 997.8mb 56f 55f
8:00am 7ft 10s 18 22 mph 997.3mb 56f 56f
6:00am 8ft 11s 16 20 mph 997.1mb 56f 56f
5:00am 8.5ft 11s 13 16 mph 996.9mb 56f 56f
4:00am 9ft 11s 13 18 mph 997mb 56f 56f
3:00am 8ft 11s 16 18 mph 996.4mb 56f 56f
2:00am 9ft 11s 20 22 mph 995.9mb 56f 57f
1:00am 9ft 11s 22 27 mph 995.2mb 56f 57f
12:00am 9ft 11s 25 29 mph 994.7mb 56f 56f
Sun 10/19 11:00pm 9ft 10s 27 31 mph 994.5mb 56f 56f
10:00pm 9.5ft 10s 25 31 mph 994.6mb 56f 56f
8:00pm 9ft 11s 22 27 mph 994mb 56f 58f
7:00pm 9.5ft 10s 22 27 mph 993.8mb 56f 57f
6:00pm 10ft 11s 20 25 mph 993.9mb 56f 57f
5:00pm 10ft 11s 20 22 mph 993.7mb 56f 57f
4:00pm 10ft 11s 16 20 mph 993.3mb 55f 57f
3:00pm 10ft 11s 20 22 mph 992.2mb 55f 57f
2:00pm 11ft 12s 16 18 mph 991.8mb 55f 57f
1:00pm 11ft 11s 16 18 mph 991.4mb 55f 56f
12:00pm 11ft 12s 16 18 mph 990.2mb 55f 56f
11:00am 13ft 11s 22 27 mph 989.3mb 54f 57f
10:00am 13ft 11s 29 34 mph 988.2mb 54f 56f
9:00am 14ft 11s 27 34 mph 987.6mb 54f 57f
8:00am 16ft 10s 34 43 mph 986.8mb 53f 56f
7:00am 16.5ft 10s 38 49 mph 986.6mb 53f 56f
6:00am 15.5ft 10s 40 54 mph 986mb 53f 57f
5:00am 14.5ft 10s 40 51 mph 986.4mb 53f 56f
3:00am 16.5ft 10s 38 47 mph 989.4mb 53f 56f
2:00am 14.5ft 10s 43 51 mph 990.9mb 54f 56f
1:00am 12ft 10s 29 38 mph 992.7mb 54f 56f
12:00am 10.5ft 10s 29 38 mph 993.9mb 54f 55f
Sat 10/18 11:00pm 9.5ft 10s 22 25 mph 995.4mb 54f 55f
10:00pm 10ft 11s 18 22 mph 996mb 53f 55f
9:00pm 10ft 11s 18 22 mph 996.5mb 54f 55f
8:00pm 12ft 9s 16 18 mph 996.6mb 53f 56f
7:00pm 11.5ft 10s 16 20 mph 996.9mb 53f 56f
6:00pm 12.5ft 10s 16 20 mph 997mb 53f 55f
4:00pm 14.5ft 10s 20 25 mph 997.1mb 53f 55f
3:00pm 16.5ft 10s 18 22 mph 996.7mb 53f 54f
2:00pm 14ft 8s 31 43 mph 996mb 53f 55f
1:00pm 12ft 7s 38 51 mph 994.7mb 53f 56f
12:00pm 11ft 7s 36 45 mph 995.2mb 53f 55f
11:00am 10.5ft 7s 34 45 mph 996.8mb 53f 55f
10:00am 10ft 11s 31 38 mph 997.4mb 53f 54f
9:00am  -   -  34
mph
- - -
8:00am 8ft 11s 31 36 mph 998.2mb 53f 54f
7:00am 8.5ft 11s 25 34 mph 999.3mb 53f 55f
6:00am 8ft 11s 22 27 mph 1000.2mb 53f 55f
5:00am 8.5ft 12s 18 22 mph 1000.9mb 53f 55f
4:00am 7.5ft 12s 11 16 mph 1001mb 53f 54f
3:00am 8ft 11s 9 13 mph 1001.3mb 53f 54f
2:00am 8ft 12s 13 18 mph 1001mb 53f 53f
1:00am 8.5ft 12s 16 20 mph 999.9mb 53f 54f
12:00am 8.5ft 12s 11 16 mph 998.9mb 53f 54f
Fri 10/17 11:00pm 9.5ft 12s 16 20 mph 997.7mb 53f 54f
10:00pm 10ft 12s 18 22 mph 996mb 53f 54f
9:00pm 12ft 12s 18 22 mph 994.5mb 53f 54f
6:00pm 16.5ft 11s 25 31 mph 991.3mb 53f 55f
5:00pm 18.5ft 12s 31 38 mph 990.7mb 53f 55f
4:00pm 18ft 11s 36 47 mph 990.4mb 53f 55f
3:00pm 18ft 12s 34 43 mph 990.5mb 53f 55f
2:00pm 18ft 11s 36 45 mph 990.4mb 53f 55f
1:00pm  -   -  36
mph
990.4mb - 54f
12:00pm 18.5ft 13s 38 47 mph 990.2mb 53f 54f
11:00am 20.5ft 12s 38 47 mph 990.3mb 53f 54f
10:00am 19.5ft 10s 40 49 mph 990.3mb 53f 54f
9:00am 20.5ft 11s 36 47 mph 990.4mb 53f 55f
8:00am 24.5ft 12s 40 49 mph 989.8mb 53f 54f
7:00am 22ft 12s 38 49 mph 989.4mb 53f 54f